Time;durP1;ratioP1;P1;durP2;ratioP2;P2;SDS_P1;SDS_P2;PMS_P1;PMS_P2;Temp;Humidity;BMP_temperature;BMP_pressure;BME280_temperature;BME280_humidity;BME280_pressure;Samples;Min_cycle;Max_cycle;Signal;HPM_P1;HPM_P2
2023/09/09 00:01:14;;;;;;;308.23;295.07;;;17.90;99.90;;;;;;5052762;28;20717;-72
2023/09/09 00:03:43;;;;;;;312.63;299.07;;;17.80;99.90;;;;;;5052786;28;20494;-71
2023/09/09 00:06:12;;;;;;;312.83;299.43;;;17.80;99.90;;;;;;5052350;28;20449;-72
2023/09/09 00:08:40;;;;;;;303.80;290.80;;;17.80;99.90;;;;;;5052531;28;21108;-71
2023/09/09 00:11:07;;;;;;;325.73;311.93;;;17.80;99.90;;;;;;5052495;28;20465;-72
2023/09/09 00:13:34;;;;;;;325.63;311.93;;;17.70;99.90;;;;;;5051853;28;20797;-72
2023/09/09 00:16:00;;;;;;;349.93;334.40;;;17.60;99.90;;;;;;5048212;28;20454;-72
2023/09/09 00:18:27;;;;;;;352.13;336.90;;;17.60;99.90;;;;;;5032423;28;20536;-71
2023/09/09 00:20:55;;;;;;;371.20;355.07;;;17.60;99.90;;;;;;5032371;28;20533;-72
2023/09/09 00:23:23;;;;;;;293.57;281.87;;;17.70;99.90;;;;;;5032423;28;20511;-72
2023/09/09 00:25:51;;;;;;;341.80;327.40;;;17.60;99.90;;;;;;5035387;28;20540;-72
2023/09/09 00:28:18;;;;;;;316.23;303.47;;;17.50;99.90;;;;;;5052521;28;20864;-72
2023/09/09 00:30:44;;;;;;;313.27;300.67;;;17.40;99.90;;;;;;5052372;28;20552;-72
2023/09/09 00:33:11;;;;;;;301.73;289.87;;;17.30;99.90;;;;;;5052262;28;20528;-73
2023/09/09 00:35:39;;;;;;;274.30;263.60;;;17.20;99.90;;;;;;5050388;28;20485;-72
2023/09/09 00:38:07;;;;;;;271.30;260.27;;;17.00;99.90;;;;;;5052241;28;20482;-71
2023/09/09 00:40:35;;;;;;;287.70;275.93;;;16.90;99.90;;;;;;5052089;28;20462;-71
2023/09/09 00:43:02;;;;;;;332.00;318.70;;;16.70;99.90;;;;;;5052123;28;21022;-71
2023/09/09 00:45:29;;;;;;;359.00;343.23;;;16.70;99.90;;;;;;5051553;28;20453;-71
2023/09/09 00:47:56;;;;;;;374.17;357.07;;;16.60;99.90;;;;;;5052115;28;20458;-71
2023/09/09 00:50:24;;;;;;;400.57;381.57;;;16.60;99.90;;;;;;5052322;28;20466;-72
2023/09/09 00:52:50;;;;;;;422.43;402.30;;;16.50;99.90;;;;;;5052352;28;20545;-71
2023/09/09 00:55:18;;;;;;;448.30;425.93;;;16.60;99.90;;;;;;5050689;28;20487;-71
2023/09/09 00:57:46;;;;;;;495.13;469.13;;;16.60;99.90;;;;;;5032152;28;20551;-71
2023/09/09 01:00:14;;;;;;;497.80;471.13;;;16.60;99.90;;;;;;5032076;28;20534;-71
2023/09/09 01:02:41;;;;;;;478.67;453.37;;;16.70;99.90;;;;;;5031894;28;20597;-71
2023/09/09 01:05:09;;;;;;;484.43;458.03;;;16.70;99.90;;;;;;5032077;28;20531;-72
2023/09/09 01:07:44;;;;;;;473.13;447.43;;;16.70;99.90;;;;;;5032054;28;20537;-72
2023/09/09 01:10:11;;;;;;;497.10;468.83;;;16.70;99.90;;;;;;5031745;28;20462;-72
2023/09/09 01:12:38;;;;;;;490.60;462.83;;;16.80;99.90;;;;;;5032066;28;20506;-71
2023/09/09 01:15:07;;;;;;;478.73;452.17;;;16.90;99.90;;;;;;5031812;28;20477;-72
2023/09/09 01:17:35;;;;;;;476.00;449.60;;;16.90;99.90;;;;;;5036222;28;20451;-71
2023/09/09 01:20:08;;;;;;;484.63;458.47;;;17.00;99.90;;;;;;5051780;28;20481;-71
2023/09/09 01:22:37;;;;;;;460.93;436.83;;;17.00;99.90;;;;;;5052015;28;20550;-71
2023/09/09 01:25:05;;;;;;;454.80;430.43;;;17.00;99.90;;;;;;5053694;28;20457;-71
2023/09/09 01:27:32;;;;;;;474.17;448.33;;;17.00;99.90;;;;;;5055449;28;20543;-71
2023/09/09 01:29:59;;;;;;;477.30;451.03;;;17.10;99.90;;;;;;5055896;28;20534;-71
2023/09/09 01:32:26;;;;;;;472.00;446.20;;;17.10;99.90;;;;;;5055842;28;20519;-71
2023/09/09 01:34:53;;;;;;;476.37;449.97;;;17.10;99.90;;;;;;5055301;28;20546;-71
2023/09/09 01:37:20;;;;;;;484.63;457.80;;;17.10;99.90;;;;;;5055344;28;20956;-71
2023/09/09 01:39:48;;;;;;;491.03;464.17;;;17.10;99.90;;;;;;5047363;28;21004;-71
2023/09/09 01:42:16;;;;;;;483.33;456.20;;;17.10;99.90;;;;;;5042481;28;20572;-71
2023/09/09 01:44:45;;;;;;;486.50;459.00;;;17.10;99.90;;;;;;5041765;28;20456;-71
2023/09/09 01:47:13;;;;;;;493.77;466.60;;;17.00;99.90;;;;;;5035534;28;20451;-71
2023/09/09 01:49:41;;;;;;;489.87;462.43;;;17.00;99.90;;;;;;5035744;28;20547;-71
2023/09/09 01:52:08;;;;;;;491.80;464.60;;;17.00;99.90;;;;;;5041129;28;20454;-71
2023/09/09 01:54:35;;;;;;;487.90;461.10;;;17.00;99.90;;;;;;5055634;28;20858;-71
2023/09/09 01:57:03;;;;;;;479.43;453.13;;;17.00;99.90;;;;;;5055052;28;20814;-71
2023/09/09 01:59:30;;;;;;;493.17;466.53;;;17.00;99.90;;;;;;5054838;28;20538;-71
2023/09/09 02:01:57;;;;;;;503.80;476.30;;;16.80;99.90;;;;;;5055121;28;20532;-71
2023/09/09 02:04:24;;;;;;;516.93;489.13;;;16.80;99.90;;;;;;5054998;28;20961;-71
2023/09/09 02:06:51;;;;;;;473.97;449.57;;;16.70;99.90;;;;;;5042416;28;20543;-71
2023/09/09 02:09:17;;;;;;;476.73;452.03;;;16.60;99.90;;;;;;5034631;28;20490;-71
2023/09/09 02:11:44;;;;;;;566.43;535.07;;;16.40;99.90;;;;;;5034777;28;20462;-71
2023/09/09 02:14:13;;;;;;;653.00;614.17;;;16.40;99.90;;;;;;5034811;28;20475;-71
2023/09/09 02:16:39;;;;;;;679.93;638.17;;;16.50;99.90;;;;;;5034750;28;20947;-71
2023/09/09 02:19:06;;;;;;;670.90;629.20;;;16.60;99.90;;;;;;5047527;28;20787;-71
2023/09/09 02:21:33;;;;;;;674.57;633.77;;;16.70;99.90;;;;;;5054634;28;20458;-71
2023/09/09 02:24:00;;;;;;;666.17;625.50;;;16.70;99.90;;;;;;5054162;28;21031;-71
2023/09/09 02:26:27;;;;;;;644.17;606.43;;;16.70;99.90;;;;;;5054534;28;20447;-71
2023/09/09 02:28:54;;;;;;;620.00;583.40;;;16.60;99.90;;;;;;5054385;28;20450;-71
2023/09/09 02:31:28;;;;;;;618.23;581.70;;;16.50;99.90;;;;;;5054398;28;20542;-71
2023/09/09 02:33:55;;;;;;;650.77;611.70;;;16.50;99.90;;;;;;5035862;28;20450;-71
2023/09/09 02:36:22;;;;;;;668.53;627.53;;;16.50;99.90;;;;;;5046355;28;20447;-71
2023/09/09 02:38:49;;;;;;;649.43;610.33;;;16.50;99.90;;;;;;5054197;28;20457;-71
2023/09/09 02:41:16;;;;;;;664.23;624.60;;;16.40;99.90;;;;;;5054507;28;20485;-71
2023/09/09 02:43:43;;;;;;;673.83;634.20;;;16.30;99.90;;;;;;5053994;28;20557;-71
2023/09/09 02:46:11;;;;;;;736.60;692.07;;;16.30;99.90;;;;;;5054323;28;20477;-71
2023/09/09 02:48:39;;;;;;;787.73;739.67;;;16.20;99.90;;;;;;5054066;28;20490;-71
2023/09/09 02:51:06;;;;;;;806.73;757.67;;;16.20;99.90;;;;;;5054240;28;20454;-71
2023/09/09 02:53:33;;;;;;;802.07;753.83;;;16.30;99.90;;;;;;5053647;28;20446;-71
2023/09/09 02:55:59;;;;;;;780.60;732.47;;;16.30;99.90;;;;;;5054148;28;20821;-71
2023/09/09 02:58:26;;;;;;;755.63;709.97;;;16.30;99.90;;;;;;5053869;28;20447;-71
2023/09/09 03:00:53;;;;;;;738.37;694.20;;;16.20;99.90;;;;;;5053894;28;20537;-71
2023/09/09 03:03:21;;;;;;;763.27;717.23;;;16.10;99.90;;;;;;5053458;28;20835;-71
2023/09/09 03:05:49;;;;;;;761.20;715.50;;;16.00;99.90;;;;;;5053909;28;20477;-71
2023/09/09 03:08:16;;;;;;;716.03;674.77;;;16.00;99.90;;;;;;5053789;28;20563;-71
2023/09/09 03:10:43;;;;;;;684.47;646.13;;;15.90;99.90;;;;;;5053894;28;20547;-71
2023/09/09 03:13:10;;;;;;;713.03;672.63;;;15.80;99.90;;;;;;5051851;28;20504;-71
2023/09/09 03:15:36;;;;;;;784.30;737.77;;;15.80;99.90;;;;;;5037301;28;20459;-71
2023/09/09 03:18:04;;;;;;;815.50;765.47;;;15.70;99.90;;;;;;5033759;28;20852;-71
2023/09/09 03:20:31;;;;;;;849.57;796.13;;;15.80;99.90;;;;;;5033513;28;20958;-71
2023/09/09 03:22:59;;;;;;;833.97;780.77;;;15.90;99.90;;;;;;5033657;28;20921;-71
2023/09/09 03:25:27;;;;;;;831.77;778.60;;;16.00;99.90;;;;;;5033619;28;20456;-71
2023/09/09 03:27:54;;;;;;;806.27;754.70;;;16.10;99.90;;;;;;5033420;28;20450;-71
2023/09/09 03:30:21;;;;;;;797.73;747.90;;;16.10;99.90;;;;;;5038732;28;20514;-71
2023/09/09 03:32:48;;;;;;;812.30;761.90;;;16.00;99.90;;;;;;5053226;28;20484;-71
2023/09/09 03:35:15;;;;;;;793.10;743.67;;;16.10;99.90;;;;;;5049402;28;20537;-71
2023/09/09 03:37:42;;;;;;;782.73;734.23;;;16.10;99.90;;;;;;5050567;28;20485;-71
2023/09/09 03:40:12;;;;;;;791.13;742.27;;;16.00;99.90;;;;;;5047568;28;20454;-72
2023/09/09 03:42:39;;;;;;;832.20;779.60;;;15.90;99.90;;;;;;5045410;28;20457;-72
2023/09/09 03:45:07;;;;;;;854.07;799.00;;;15.90;99.90;;;;;;5050467;28;20475;-73
2023/09/09 03:47:34;;;;;;;870.90;814.07;;;15.90;99.90;;;;;;5042033;28;20449;-74
2023/09/09 03:50:01;;;;;;;896.47;839.37;;;15.90;99.90;;;;;;5050924;28;20939;-73
2023/09/09 03:52:29;;;;;;;804.07;757.13;;;15.90;99.90;;;;;;5042659;28;20456;-73
2023/09/09 03:54:56;;;;;;;791.20;746.03;;;15.70;99.90;;;;;;5051296;28;20457;-74
2023/09/09 03:57:24;;;;;;;844.63;794.27;;;15.60;99.90;;;;;;5047693;28;20476;-73
2023/09/09 03:59:52;;;;;;;864.60;812.17;;;15.50;99.90;;;;;;5032579;28;20969;-73
2023/09/09 04:02:19;;;;;;;852.90;801.60;;;15.60;99.90;;;;;;5032979;28;20463;-74
2023/09/09 04:04:46;;;;;;;840.07;790.17;;;15.50;99.90;;;;;;5032791;28;20530;-74
2023/09/09 04:07:13;;;;;;;825.10;775.70;;;15.50;99.90;;;;;;5032881;28;20456;-73
2023/09/09 04:09:41;;;;;;;851.80;800.43;;;15.40;99.90;;;;;;5032533;28;20461;-73
2023/09/09 04:12:09;;;;;;;853.60;800.57;;;15.40;99.90;;;;;;5034310;28;20454;-73
2023/09/09 04:14:39;;;;;;;860.83;806.50;;;15.40;99.90;;;;;;5044869;28;20456;-73
2023/09/09 04:17:07;;;;;;;877.07;820.70;;;15.40;99.90;;;;;;5050788;28;20448;-73
2023/09/09 04:19:34;;;;;;;900.43;840.43;;;15.40;99.90;;;;;;5049871;28;20454;-73
2023/09/09 04:22:01;;;;;;;887.80;827.87;;;15.50;99.90;;;;;;5045260;28;20449;-73
2023/09/09 04:24:28;;;;;;;899.30;837.30;;;15.60;99.90;;;;;;5035215;28;20476;-73
2023/09/09 04:26:55;;;;;;;893.63;833.93;;;15.60;99.90;;;;;;5032676;28;20453;-73
2023/09/09 04:29:22;;;;;;;884.70;826.57;;;15.70;99.90;;;;;;5035286;28;20851;-73
2023/09/09 04:31:50;;;;;;;867.47;810.07;;;15.70;99.90;;;;;;5046237;28;20464;-73
2023/09/09 04:34:17;;;;;;;854.60;798.70;;;15.60;99.90;;;;;;5035849;28;20477;-73
2023/09/09 04:36:45;;;;;;;857.73;802.43;;;15.50;99.90;;;;;;5040785;28;20533;-73
2023/09/09 04:39:14;;;;;;;874.73;817.57;;;15.50;99.90;;;;;;5032322;28;20450;-73
2023/09/09 04:41:41;;;;;;;871.80;815.00;;;15.40;99.90;;;;;;5051138;28;20532;-73
2023/09/09 04:44:08;;;;;;;871.47;813.73;;;15.40;99.90;;;;;;5052126;28;20476;-73
2023/09/09 04:46:35;;;;;;;882.87;824.07;;;15.30;99.90;;;;;;5052162;28;20456;-73
2023/09/09 04:49:03;;;;;;;893.63;834.37;;;15.40;99.90;;;;;;5051804;28;20942;-73
2023/09/09 04:51:31;;;;;;;910.57;849.17;;;15.40;99.90;;;;;;5051953;28;20954;-73
2023/09/09 04:53:58;;;;;;;911.40;849.10;;;15.40;99.90;;;;;;5032407;28;20441;-73
2023/09/09 04:56:25;;;;;;;891.97;830.97;;;15.50;99.90;;;;;;5032220;28;20814;-73
2023/09/09 04:58:52;;;;;;;892.80;832.30;;;15.50;99.90;;;;;;5036220;28;20811;-73
2023/09/09 05:01:18;;;;;;;871.40;811.63;;;15.60;99.90;;;;;;5056009;28;21092;-74
2023/09/09 05:03:45;;;;;;;860.87;802.57;;;15.60;99.90;;;;;;5055976;28;20478;-74
2023/09/09 05:06:14;;;;;;;855.60;798.20;;;15.60;99.90;;;;;;5056524;28;20866;-74
2023/09/09 05:08:40;;;;;;;874.57;816.17;;;15.60;99.90;;;;;;5056000;28;20482;-74
2023/09/09 05:11:07;;;;;;;881.33;821.00;;;15.50;99.90;;;;;;5055810;28;20957;-74
2023/09/09 05:13:34;;;;;;;903.70;841.97;;;15.50;99.90;;;;;;5055990;28;20483;-74
2023/09/09 05:16:01;;;;;;;909.27;845.60;;;15.50;99.90;;;;;;5055959;28;20454;-74
2023/09/09 05:18:28;;;;;;;923.90;858.90;;;15.60;99.90;;;;;;5055526;28;20453;-74
2023/09/09 05:20:55;;;;;;;929.07;864.57;;;15.60;99.90;;;;;;5056122;28;20535;-74
2023/09/09 05:23:23;;;;;;;918.27;854.70;;;15.70;99.90;;;;;;5055869;28;20507;-74
2023/09/09 05:25:50;;;;;;;923.07;861.43;;;15.70;99.90;;;;;;5055815;28;20457;-73
2023/09/09 05:28:16;;;;;;;934.33;871.17;;;15.80;99.90;;;;;;5053866;28;20492;-75
2023/09/09 05:30:43;;;;;;;907.37;848.37;;;15.80;99.90;;;;;;5037610;28;20460;-74
2023/09/09 05:33:10;;;;;;;877.13;824.43;;;15.80;99.90;;;;;;5043029;28;20544;-74
2023/09/09 05:35:37;;;;;;;851.53;801.00;;;15.70;99.90;;;;;;5044603;28;20459;-74
2023/09/09 05:38:04;;;;;;;825.90;778.77;;;15.70;99.90;;;;;;5046012;28;20934;-74
2023/09/09 05:40:32;;;;;;;832.97;784.77;;;15.70;99.90;;;;;;5036774;28;20966;-74
2023/09/09 05:42:59;;;;;;;845.43;794.57;;;15.70;99.90;;;;;;5041015;28;20481;-74
2023/09/09 05:45:26;;;;;;;894.83;837.73;;;15.80;99.90;;;;;;5052368;28;20532;-74
2023/09/09 05:47:53;;;;;;;891.87;834.07;;;15.90;99.90;;;;;;5038342;28;20480;-74
2023/09/09 05:50:20;;;;;;;872.23;815.27;;;16.00;99.90;;;;;;5048770;28;20450;-74
2023/09/09 05:52:47;;;;;;;877.80;820.90;;;16.10;99.90;;;;;;5042221;28;20463;-71
2023/09/09 05:55:14;;;;;;;824.87;773.60;;;16.20;99.90;;;;;;5056725;28;20453;-72
2023/09/09 05:57:42;;;;;;;826.40;774.97;;;16.40;99.90;;;;;;5056392;28;20951;-71
2023/09/09 06:00:10;;;;;;;810.93;760.90;;;16.50;99.90;;;;;;5056571;28;20455;-74
2023/09/09 06:02:37;;;;;;;787.00;738.37;;;16.60;99.90;;;;;;5056376;28;20818;-73
2023/09/09 06:05:05;;;;;;;759.93;712.73;;;16.80;99.90;;;;;;5054672;28;20475;-73
2023/09/09 06:07:32;;;;;;;743.87;697.40;;;16.90;99.90;;;;;;5054657;28;20526;-73
2023/09/09 06:10:00;;;;;;;737.93;692.23;;;17.00;99.90;;;;;;5055093;28;20458;-74
2023/09/09 06:12:26;;;;;;;722.50;678.60;;;17.10;99.90;;;;;;5054891;28;20458;-73
2023/09/09 06:14:55;;;;;;;712.60;669.90;;;17.20;99.90;;;;;;5054780;28;20953;-73
2023/09/09 06:17:22;;;;;;;689.23;648.27;;;17.30;99.90;;;;;;5054750;28;20454;-74
2023/09/09 06:19:48;;;;;;;666.60;628.17;;;17.40;99.90;;;;;;5054196;28;20455;-73
2023/09/09 06:22:15;;;;;;;643.20;605.20;;;17.60;99.90;;;;;;5054816;28;20448;-73
2023/09/09 06:24:43;;;;;;;604.30;569.23;;;17.70;99.90;;;;;;5054672;28;20972;-73
2023/09/09 06:27:10;;;;;;;572.23;540.23;;;17.80;99.90;;;;;;5054068;28;20490;-74
2023/09/09 06:29:37;;;;;;;529.80;500.13;;;17.90;99.90;;;;;;5053966;28;20449;-73
2023/09/09 06:32:06;;;;;;;478.23;452.20;;;18.00;99.90;;;;;;5054675;28;20454;-73
2023/09/09 06:34:33;;;;;;;454.80;431.10;;;18.20;99.90;;;;;;5054610;28;20816;-73
2023/09/09 06:37:00;;;;;;;426.47;405.13;;;18.20;99.90;;;;;;5054340;28;20466;-73
2023/09/09 06:39:27;;;;;;;401.10;382.23;;;18.40;99.90;;;;;;5054165;28;20487;-73
2023/09/09 06:41:53;;;;;;;378.60;360.47;;;18.50;99.90;;;;;;5054396;28;20476;-74
2023/09/09 06:44:20;;;;;;;347.77;331.93;;;18.60;99.90;;;;;;5054233;28;20560;-74
2023/09/09 06:46:47;;;;;;;325.77;310.87;;;18.70;99.90;;;;;;5054262;28;20553;-73
2023/09/09 06:49:15;;;;;;;338.13;323.03;;;18.70;99.90;;;;;;5047564;28;20459;-73
2023/09/09 06:51:42;;;;;;;310.67;296.93;;;18.80;99.90;;;;;;5033836;28;20453;-73
2023/09/09 06:54:09;;;;;;;294.03;280.73;;;19.00;99.90;;;;;;5033725;28;20945;-73
2023/09/09 06:56:36;;;;;;;276.70;264.87;;;19.10;99.90;;;;;;5033636;28;20456;-73
2023/09/09 06:59:03;;;;;;;283.33;271.10;;;19.20;99.90;;;;;;5033234;28;20449;-73
2023/09/09 07:01:30;;;;;;;280.97;268.47;;;19.20;99.90;;;;;;5033202;28;20549;-73
2023/09/09 07:03:57;;;;;;;300.70;287.33;;;19.40;99.90;;;;;;5033283;28;20473;-73
2023/09/09 07:06:25;;;;;;;262.65;250.98;;;19.50;99.90;;;;;;5032474;28;20453;-73
2023/09/09 07:08:53;;;;;;;229.37;219.60;;;19.50;99.90;;;;;;5031990;28;20453;-73
2023/09/09 07:11:20;;;;;;;143.40;137.00;;;19.70;99.90;;;;;;5033246;28;20437;-72
2023/09/09 07:13:47;;;;;;;128.23;122.23;;;19.80;99.90;;;;;;5033680;28;20458;-72
2023/09/09 07:16:14;;;;;;;131.37;125.20;;;19.90;99.90;;;;;;5033826;28;20450;-73
2023/09/09 07:18:41;;;;;;;130.20;124.03;;;20.00;99.90;;;;;;5033513;28;20487;-73
2023/09/09 07:21:07;;;;;;;137.27;131.03;;;20.10;99.90;;;;;;5033684;28;20488;-73
2023/09/09 07:23:36;;;;;;;106.27;100.97;;;20.20;99.90;;;;;;5032992;28;20457;-73
2023/09/09 07:26:03;;;;;;;111.40;106.20;;;20.30;99.90;;;;;;5033723;28;20468;-73
2023/09/09 07:28:30;;;;;;;111.63;106.23;;;20.40;99.90;;;;;;5033378;28;20462;-73
2023/09/09 07:31:01;;;;;;;117.03;111.73;;;20.50;99.90;;;;;;5033672;28;20875;-73
2023/09/09 07:33:28;;;;;;;75.77;71.50;;;20.70;99.90;;;;;;5033572;28;20831;-73
2023/09/09 07:35:55;;;;;;;60.67;56.97;;;20.80;99.90;;;;;;5033305;28;20454;-73
2023/09/09 07:38:22;;;;;;;62.10;58.10;;;20.90;99.90;;;;;;5033122;28;20957;-73
2023/09/09 07:40:55;;;;;;;49.13;45.93;;;21.00;99.90;;;;;;5033289;28;20462;-73
2023/09/09 07:43:23;;;;;;;49.67;46.27;;;21.10;99.90;;;;;;5033545;28;20547;-73
2023/09/09 07:45:51;;;;;;;41.40;38.53;;;21.30;99.90;;;;;;5033249;28;20480;-73
2023/09/09 07:48:18;;;;;;;30.67;27.87;;;21.40;99.90;;;;;;5033016;28;20543;-73
2023/09/09 07:50:51;;;;;;;29.90;27.20;;;21.50;99.90;;;;;;5033113;28;20455;-73
2023/09/09 07:53:18;;;;;;;23.27;21.07;;;21.70;99.90;;;;;;5033380;28;20456;-72
2023/09/09 07:55:47;;;;;;;23.83;21.17;;;21.80;99.90;;;;;;5033096;28;20452;-73
2023/09/09 07:58:16;;;;;;;24.20;17.17;;;22.10;99.90;;;;;;5032831;28;20835;-73
2023/09/09 08:00:44;;;;;;;19.97;16.50;;;22.40;99.90;;;;;;5032955;28;20502;-73
2023/09/09 08:03:11;;;;;;;24.27;17.00;;;22.70;99.90;;;;;;5032949;28;20525;-73
2023/09/09 08:05:38;;;;;;;19.13;17.03;;;23.10;99.90;;;;;;5033065;28;20482;-73
2023/09/09 08:08:06;;;;;;;18.40;16.20;;;23.40;99.90;;;;;;5032974;28;20815;-73
2023/09/09 08:10:33;;;;;;;16.23;13.87;;;23.80;99.90;;;;;;5032825;28;20830;-73
2023/09/09 08:13:00;;;;;;;19.23;14.70;;;24.20;99.90;;;;;;5032889;28;20830;-73
2023/09/09 08:15:28;;;;;;;20.03;15.23;;;24.60;99.90;;;;;;5032592;28;20932;-73
2023/09/09 08:17:55;;;;;;;15.90;13.60;;;24.80;97.10;;;;;;5033070;28;20479;-73
2023/09/09 08:20:22;;;;;;;17.63;14.30;;;25.20;97.20;;;;;;5032745;28;20460;-73
2023/09/09 08:22:49;;;;;;;19.43;15.17;;;25.50;94.50;;;;;;5032684;28;20543;-73
2023/09/09 08:25:16;;;;;;;19.83;13.10;;;25.80;94.00;;;;;;5032607;28;20484;-73
2023/09/09 08:27:43;;;;;;;16.60;12.47;;;26.00;91.40;;;;;;5032473;28;20454;-73
2023/09/09 08:30:10;;;;;;;24.67;14.87;;;26.20;90.60;;;;;;5032107;28;20937;-73
2023/09/09 08:32:39;;;;;;;18.50;13.40;;;26.40;86.40;;;;;;5032577;28;20990;-72
2023/09/09 08:35:06;;;;;;;17.07;13.67;;;26.60;84.70;;;;;;5033207;28;20783;-70
2023/09/09 08:37:33;;;;;;;19.20;14.33;;;26.90;76.00;;;;;;5033945;28;20445;-70
2023/09/09 08:40:00;;;;;;;20.20;15.30;;;27.30;77.10;;;;;;5033901;28;20547;-70
2023/09/09 08:42:39;;;;;;;17.57;13.27;;;27.40;63.30;;;;;;5033431;28;20426;-70
2023/09/09 08:45:13;;;;;;;17.50;13.20;;;27.80;59.90;;;;;;5032331;28;20583;-70
2023/09/09 08:47:42;;;;;;;15.47;12.83;;;27.90;60.00;;;;;;5032384;28;21008;-70
2023/09/09 08:50:10;;;;;;;20.75;13.40;;;28.10;55.80;;;;;;5032018;28;20493;-70
2023/09/09 08:52:39;;;;;;;19.52;14.60;;;28.40;51.40;;;;;;5031641;28;20453;-71
2023/09/09 08:55:07;;;;;;;18.63;14.37;;;28.80;49.40;;;;;;5032791;28;20194;-71
2023/09/09 08:57:34;;;;;;;14.13;12.63;;;29.00;42.80;;;;;;5032820;28;20934;-71
2023/09/09 09:00:04;;;;;;;19.27;14.37;;;29.00;42.80;;;;;;5032485;28;20456;-68
2023/09/09 09:02:31;;;;;;;19.10;12.53;;;29.30;38.40;;;;;;5031353;28;20454;-69
2023/09/09 09:05:00;;;;;;;17.67;14.40;;;29.30;33.70;;;;;;5032182;28;20459;-68
2023/09/09 09:07:28;;;;;;;19.87;14.07;;;29.40;33.90;;;;;;5032321;28;20953;-71
2023/09/09 09:09:55;;;;;;;18.23;12.33;;;29.90;34.20;;;;;;5031618;28;20957;-70
2023/09/09 09:12:23;;;;;;;16.07;11.93;;;30.20;29.60;;;;;;5032456;28;20906;-69
2023/09/09 09:14:49;;;;;;;20.00;12.00;;;30.30;26.60;;;;;;5032038;28;20455;-68
2023/09/09 09:17:17;;;;;;;20.03;11.50;;;30.40;28.60;;;;;;5032441;28;20536;-68
2023/09/09 09:19:44;;;;;;;13.90;11.03;;;30.60;26.40;;;;;;5031985;28;20422;-70
2023/09/09 09:22:14;;;;;;;21.63;10.80;;;30.80;26.50;;;;;;5032061;28;20677;-71
2023/09/09 09:24:43;;;;;;;37.70;12.23;;;30.70;24.40;;;;;;5031946;28;20487;-71
2023/09/09 09:27:10;;;;;;;17.23;9.50;;;31.10;26.60;;;;;;5031997;28;20451;-71
2023/09/09 09:29:40;;;;;;;19.27;10.40;;;31.60;26.90;;;;;;5031880;28;21011;-70
2023/09/09 09:32:07;;;;;;;20.43;10.90;;;31.80;19.50;;;;;;5032515;28;20452;-71
2023/09/09 09:34:35;;;;;;;17.80;9.53;;;31.90;14.70;;;;;;5031945;28;20448;-71
2023/09/09 09:37:08;;;;;;;15.10;10.00;;;31.90;15.20;;;;;;5032219;28;20455;-70
2023/09/09 09:39:37;;;;;;;18.10;9.27;;;31.90;13.90;;;;;;5032013;28;20435;-71
2023/09/09 09:42:04;;;;;;;19.17;8.80;;;32.20;12.00;;;;;;5032160;28;20458;-69
2023/09/09 09:44:31;;;;;;;20.27;9.40;;;32.10;12.00;;;;;;5032250;28;20427;-69
2023/09/09 09:47:03;;;;;;;12.20;7.37;;;33.00;9.20;;;;;;5035650;28;20454;-70
2023/09/09 09:49:35;;;;;;;16.00;9.37;;;33.30;4.80;;;;;;5035637;28;20509;-69
2023/09/09 09:52:02;;;;;;;18.27;8.87;;;33.60;5.00;;;;;;5035606;28;20914;-69
2023/09/09 09:54:30;;;;;;;18.30;7.80;;;34.00;5.20;;;;;;5035797;28;20426;-69
2023/09/09 09:57:00;;;;;;;13.93;8.00;;;34.10;1.00;;;;;;5035777;28;20451;-69
2023/09/09 09:59:31;;;;;;;15.47;7.00;;;34.20;1.00;;;;;;5035969;28;20445;-69
2023/09/09 10:01:58;;;;;;;18.50;7.90;;;33.80;1.00;;;;;;5035617;28;20423;-70
2023/09/09 10:04:27;;;;;;;14.73;7.10;;;34.10;1.00;;;;;;5035858;28;20472;-69
2023/09/09 10:06:57;;;;;;;12.30;7.23;;;34.30;1.00;;;;;;5036752;28;20427;-70
2023/09/09 10:09:31;;;;;;;18.47;7.50;;;34.10;1.00;;;;;;5043818;28;20825;-70
2023/09/09 10:12:05;;;;;;;17.23;6.80;;;34.30;1.00;;;;;;5046713;28;20413;-69
2023/09/09 10:14:35;;;;;;;17.13;6.40;;;35.00;1.00;;;;;;5044165;28;20444;-67
2023/09/09 10:17:06;;;;;;;16.60;6.93;;;34.80;1.00;;;;;;5052626;28;20865;-69
2023/09/09 10:19:36;;;;;;;16.33;6.20;;;35.10;1.00;;;;;;5055048;28;20498;-69
2023/09/09 10:22:05;;;;;;;16.37;5.93;;;35.20;1.00;;;;;;5055342;28;20867;-70
2023/09/09 10:24:33;;;;;;;18.10;5.80;;;35.10;1.00;;;;;;5055418;28;20920;-70
2023/09/09 10:27:04;;;;;;;10.63;6.20;;;35.00;1.00;;;;;;5055690;28;20827;-70
2023/09/09 10:29:31;;;;;;;14.83;6.10;;;35.40;1.00;;;;;;5055319;28;20455;-70
2023/09/09 10:32:01;;;;;;;21.40;6.93;;;35.50;1.00;;;;;;5055150;28;20453;-70
2023/09/09 10:34:30;;;;;;;25.03;7.07;;;35.80;1.00;;;;;;5055275;28;20470;-68
2023/09/09 10:36:59;;;;;;;9.67;5.70;;;36.00;1.00;;;;;;5054942;28;20422;-71
2023/09/09 10:39:26;;;;;;;13.77;6.83;;;35.70;1.00;;;;;;5054774;28;20447;-71
2023/09/09 10:41:55;;;;;;;11.87;6.33;;;36.30;1.00;;;;;;5055033;28;20422;-71
2023/09/09 10:44:23;;;;;;;13.43;6.77;;;35.80;1.00;;;;;;5054893;28;20447;-71
2023/09/09 10:46:55;;;;;;;21.73;6.80;;;36.40;1.00;;;;;;5054948;28;20450;-70
2023/09/09 10:49:26;;;;;;;13.80;6.13;;;36.30;1.00;;;;;;5054929;28;20426;-71
2023/09/09 10:51:53;;;;;;;19.30;8.03;;;36.10;1.00;;;;;;5054767;28;20414;-70
2023/09/09 10:54:22;;;;;;;15.90;6.07;;;36.40;1.00;;;;;;5055060;28;20483;-70
2023/09/09 10:56:50;;;;;;;18.63;6.00;;;37.40;1.00;;;;;;5054172;28;20534;-70
2023/09/09 10:59:18;;;;;;;18.40;6.37;;;37.90;1.00;;;;;;5054384;28;20429;-70
2023/09/09 11:01:48;;;;;;;16.40;7.63;;;37.30;1.00;;;;;;5054851;28;20542;-70
2023/09/09 11:04:22;;;;;;;13.80;6.00;;;36.90;1.00;;;;;;5054898;28;20447;-69
2023/09/09 11:07:08;;;;;;;13.90;6.97;;;37.60;1.00;;;;;;5054727;28;20553;-70
2023/09/09 11:09:35;;;;;;;15.37;6.50;;;37.70;1.00;;;;;;5054648;28;20398;-69
2023/09/09 11:12:13;;;;;;;17.00;7.10;;;36.60;1.00;;;;;;5055101;28;20438;-70
2023/09/09 11:14:44;;;;;;;11.53;6.70;;;36.80;1.00;;;;;;5054855;28;20459;-70
2023/09/09 11:17:13;;;;;;;13.40;6.20;;;37.40;1.00;;;;;;5054674;28;20510;-69
2023/09/09 11:19:42;;;;;;;12.57;6.43;;;36.60;1.00;;;;;;5053140;28;20440;-69
2023/09/09 11:22:10;;;;;;;12.53;6.50;;;36.90;1.00;;;;;;5033941;28;20517;-69
2023/09/09 11:24:36;;;;;;;9.83;5.00;;;36.80;1.00;;;;;;5033887;28;20452;-69
2023/09/09 11:27:05;;;;;;;13.20;6.33;;;37.40;1.00;;;;;;5051435;28;20453;-69
2023/09/09 11:29:32;;;;;;;14.57;6.40;;;37.40;1.00;;;;;;5053542;28;20473;-69
2023/09/09 11:31:59;;;;;;;16.10;6.93;;;38.00;1.00;;;;;;5053824;28;20482;-69
2023/09/09 11:34:32;;;;;;;11.50;5.90;;;38.70;1.00;;;;;;5053731;28;20542;-69
2023/09/09 11:36:59;;;;;;;14.60;7.43;;;39.20;1.00;;;;;;5053657;28;20454;-69
2023/09/09 11:39:27;;;;;;;11.20;8.13;;;38.50;1.00;;;;;;5053291;28;20454;-69
2023/09/09 11:41:53;;;;;;;17.33;6.67;;;38.40;1.00;;;;;;5053548;28;20422;-69
2023/09/09 11:44:20;;;;;;;15.63;6.87;;;38.60;1.00;;;;;;5053666;28;20428;-69
2023/09/09 11:46:49;;;;;;;19.43;7.30;;;38.30;1.00;;;;;;5053499;28;20453;-69
2023/09/09 11:49:17;;;;;;;16.30;6.00;;;37.50;1.00;;;;;;5053449;28;20451;-69
2023/09/09 11:51:46;;;;;;;14.80;7.67;;;37.50;1.00;;;;;;5053369;28;20425;-69
2023/09/09 11:54:20;;;;;;;12.30;6.43;;;38.20;1.00;;;;;;5053508;28;20421;-70
2023/09/09 11:56:47;;;;;;;18.70;6.63;;;38.30;1.00;;;;;;5053472;28;20443;-68
2023/09/09 11:59:15;;;;;;;13.03;6.83;;;38.10;1.00;;;;;;5053789;28;20439;-68
2023/09/09 12:01:43;;;;;;;11.60;7.07;;;37.60;1.00;;;;;;5053976;28;20575;-68
2023/09/09 12:04:10;;;;;;;15.80;7.43;;;38.10;1.00;;;;;;5053520;28;20422;-68
2023/09/09 12:06:39;;;;;;;17.47;7.00;;;37.50;1.00;;;;;;5053757;28;20467;-68
2023/09/09 12:09:11;;;;;;;30.53;9.17;;;37.70;1.00;;;;;;5053186;28;20518;-68
2023/09/09 12:11:41;;;;;;;16.97;6.77;;;38.30;1.00;;;;;;5053692;28;20433;-68
2023/09/09 12:14:08;;;;;;;15.37;7.57;;;38.40;1.00;;;;;;5053650;28;20426;-68
2023/09/09 12:16:36;;;;;;;17.90;7.63;;;38.80;1.00;;;;;;5053281;28;21005;-68
2023/09/09 12:19:03;;;;;;;20.73;8.00;;;38.20;1.00;;;;;;5053213;28;20507;-69
2023/09/09 12:21:31;;;;;;;14.10;5.83;;;38.10;1.00;;;;;;5053225;28;20920;-69
2023/09/09 12:24:00;;;;;;;12.30;5.47;;;38.20;1.00;;;;;;5053721;28;20512;-68